Time;durP1;ratioP1;P1;durP2;ratioP2;P2;SDS_P1;SDS_P2;PMS_P1;PMS_P2;Temp;Humidity;BMP_temperature;BMP_pressure;BME280_temperature;BME280_humidity;BME280_pressure;Samples;Min_cycle;Max_cycle;Signal;HPM_P1;HPM_P2
2022/04/27 00:00:51;;;;;;;4.67;3.60;;;12.60;99.90;;;;;;5060388;28;20955;-77
2022/04/27 00:03:19;;;;;;;5.07;3.87;;;12.60;99.90;;;;;;5060052;28;20476;-77
2022/04/27 00:05:47;;;;;;;4.47;3.73;;;12.70;99.90;;;;;;5060838;28;20808;-76
2022/04/27 00:08:16;;;;;;;5.20;4.43;;;12.80;99.90;;;;;;5059923;28;20478;-77
2022/04/27 00:10:44;;;;;;;6.53;4.47;;;12.70;99.90;;;;;;5061641;28;20958;-77
2022/04/27 00:13:15;;;;;;;4.83;4.10;;;13.10;99.90;;;;;;5060088;28;20471;-76
2022/04/27 00:15:44;;;;;;;5.57;4.40;;;12.80;99.90;;;;;;5058954;28;20447;-76
2022/04/27 00:18:13;;;;;;;4.93;4.20;;;12.80;99.90;;;;;;5059746;28;20528;-76
2022/04/27 00:20:42;;;;;;;5.07;4.37;;;12.80;99.90;;;;;;5061868;28;20454;-73
2022/04/27 00:23:11;;;;;;;10.13;4.43;;;12.80;99.90;;;;;;5058201;28;20447;-76
2022/04/27 00:25:39;;;;;;;6.67;5.00;;;12.80;99.90;;;;;;5061394;28;20443;-76
2022/04/27 00:28:07;;;;;;;6.77;4.90;;;12.80;99.90;;;;;;5061082;28;20461;-76
2022/04/27 00:30:36;;;;;;;6.40;4.77;;;12.80;99.90;;;;;;5062299;28;20450;-74
2022/04/27 00:33:04;;;;;;;6.40;4.77;;;12.70;99.90;;;;;;5061845;28;20456;-76
2022/04/27 00:35:33;;;;;;;6.60;4.57;;;12.70;99.90;;;;;;5059320;28;20454;-76
2022/04/27 00:38:02;;;;;;;10.00;5.37;;;12.70;99.90;;;;;;5060683;28;20613;-73
2022/04/27 00:40:30;;;;;;;8.17;6.00;;;12.60;99.90;;;;;;5059158;28;20459;-76
2022/04/27 00:42:58;;;;;;;7.47;5.73;;;12.60;99.90;;;;;;5063122;28;20451;-76
2022/04/27 00:45:27;;;;;;;8.03;6.07;;;12.70;99.90;;;;;;5053829;28;20465;-76
2022/04/27 00:47:55;;;;;;;6.30;4.93;;;12.60;99.90;;;;;;5066068;28;20459;-77
2022/04/27 00:50:23;;;;;;;6.57;5.57;;;12.60;99.90;;;;;;5059602;28;20484;-76
2022/04/27 00:52:53;;;;;;;8.23;5.90;;;12.70;99.90;;;;;;5062082;28;20967;-76
2022/04/27 00:55:22;;;;;;;8.33;6.10;;;12.60;99.90;;;;;;5058684;28;20454;-76
2022/04/27 00:57:50;;;;;;;6.73;5.47;;;12.70;99.90;;;;;;5061984;28;20474;-76
2022/04/27 01:00:18;;;;;;;6.60;5.50;;;12.70;99.90;;;;;;5061517;28;20978;-76
2022/04/27 01:02:47;;;;;;;6.77;5.57;;;12.70;99.90;;;;;;5059519;28;20469;-76
2022/04/27 01:05:16;;;;;;;6.17;5.57;;;12.70;99.90;;;;;;5062403;28;20466;-76
2022/04/27 01:07:44;;;;;;;8.27;6.03;;;12.90;99.90;;;;;;5059829;28;20456;-77
2022/04/27 01:10:14;;;;;;;9.87;7.33;;;12.60;99.90;;;;;;5063548;28;20482;-77
2022/04/27 01:12:42;;;;;;;7.90;5.80;;;12.70;99.90;;;;;;5065188;28;20458;-77
2022/04/27 01:15:11;;;;;;;9.70;7.33;;;12.70;99.90;;;;;;5061424;28;21007;-77
2022/04/27 01:17:39;;;;;;;9.97;6.70;;;12.70;99.90;;;;;;5065387;28;20474;-76
2022/04/27 01:20:08;;;;;;;10.80;7.20;;;12.60;99.90;;;;;;5060662;28;21012;-76
2022/04/27 01:22:38;;;;;;;10.00;7.10;;;12.60;99.90;;;;;;5064695;28;20454;-75
2022/04/27 01:25:07;;;;;;;10.00;6.97;;;12.60;99.90;;;;;;5062234;28;20505;-76
2022/04/27 01:27:35;;;;;;;14.43;7.87;;;12.60;99.90;;;;;;5064024;28;20439;-75
2022/04/27 01:30:03;;;;;;;10.77;7.87;;;12.70;99.90;;;;;;5064214;28;20474;-74
2022/04/27 01:32:32;;;;;;;13.53;8.57;;;12.70;99.90;;;;;;5063488;28;20452;-75
2022/04/27 01:35:00;;;;;;;12.87;9.00;;;12.80;99.90;;;;;;5064802;28;20867;-76
2022/04/27 01:40:15;;;;;;;10.97;8.10;;;12.60;99.90;;;;;;5061724;28;20477;-76
2022/04/27 01:42:43;;;;;;;11.40;7.33;;;12.60;99.90;;;;;;5063634;28;20467;-76
2022/04/27 01:45:11;;;;;;;11.37;8.90;;;12.60;99.90;;;;;;5060222;28;20465;-75
2022/04/27 01:47:40;;;;;;;12.57;9.63;;;12.70;99.90;;;;;;5068121;28;20517;-76
2022/04/27 01:50:08;;;;;;;12.13;8.00;;;12.60;99.90;;;;;;5064267;28;21182;-76
2022/04/27 01:55:23;;;;;;;14.23;8.23;;;12.60;99.90;;;;;;5059769;28;20977;-75
2022/04/27 01:57:53;;;;;;;11.83;7.90;;;12.70;99.90;;;;;;5064604;28;20485;-75
2022/04/27 02:00:22;;;;;;;13.83;8.67;;;12.70;99.90;;;;;;5061679;28;20484;-76
2022/04/27 02:02:50;;;;;;;13.93;9.20;;;12.70;99.90;;;;;;5064909;28;20466;-76
2022/04/27 02:05:18;;;;;;;12.50;8.43;;;12.70;99.90;;;;;;5060137;28;21094;-76
2022/04/27 02:07:46;;;;;;;10.97;8.10;;;12.70;99.90;;;;;;5062820;28;20451;-76
2022/04/27 02:10:14;;;;;;;12.90;9.73;;;12.70;99.90;;;;;;5064047;28;20474;-77
2022/04/27 02:12:44;;;;;;;12.17;8.63;;;12.70;99.90;;;;;;5063966;28;20504;-77
2022/04/27 02:15:12;;;;;;;12.93;8.63;;;12.60;99.90;;;;;;5059261;28;20453;-76
2022/04/27 02:17:40;;;;;;;15.13;9.70;;;12.60;99.90;;;;;;5062599;28;20871;-76
2022/04/27 02:20:10;;;;;;;13.43;8.33;;;12.60;99.90;;;;;;5062029;28;20913;-78
2022/04/27 02:22:39;;;;;;;13.43;9.00;;;12.70;99.90;;;;;;5063789;28;20451;-77
2022/04/27 02:25:08;;;;;;;15.53;8.43;;;12.60;1.00;;;;;;5061739;28;20457;-75
2022/04/27 02:27:36;;;;;;;16.63;11.07;;;12.60;1.00;;;;;;5065011;28;20452;-76
2022/04/27 02:30:08;;;;;;;12.03;8.53;;;12.60;1.00;;;;;;5063741;28;20505;-78
2022/04/27 02:32:36;;;;;;;12.37;9.40;;;12.60;1.00;;;;;;5059722;28;21172;-77
2022/04/27 02:35:05;;;;;;;13.90;9.60;;;12.60;1.00;;;;;;5067115;28;20513;-74
2022/04/27 02:37:33;;;;;;;12.90;7.90;;;12.60;1.00;;;;;;5066576;28;20468;-76
2022/04/27 02:40:01;;;;;;;12.70;8.83;;;12.60;1.00;;;;;;5063763;28;21032;-77
2022/04/27 02:42:29;;;;;;;13.17;8.87;;;12.60;1.00;;;;;;5061753;28;20535;-77
2022/04/27 02:44:58;;;;;;;11.40;8.70;;;12.60;1.00;;;;;;5060736;28;20568;-77
2022/04/27 02:47:27;;;;;;;13.00;8.73;;;12.70;99.90;;;;;;5062408;28;20456;-76
2022/04/27 02:52:41;;;;;;;13.10;9.00;;;12.70;1.00;;;;;;5061007;28;20959;-77
2022/04/27 02:55:09;;;;;;;14.33;9.17;;;12.60;1.00;;;;;;5057710;28;20465;-78
2022/04/27 02:57:38;;;;;;;13.87;9.30;;;12.60;1.00;;;;;;5060674;28;20490;-77
2022/04/27 03:00:08;;;;;;;14.70;9.93;;;12.60;1.00;;;;;;5061305;28;20485;-75
2022/04/27 03:02:39;;;;;;;16.10;9.50;;;12.60;1.00;;;;;;5058405;28;20442;-77
2022/04/27 03:05:09;;;;;;;14.57;8.87;;;12.60;1.00;;;;;;5058608;28;20460;-77
2022/04/27 03:07:37;;;;;;;13.27;9.40;;;12.60;1.00;;;;;;5058032;28;20460;-76
2022/04/27 03:10:06;;;;;;;14.60;9.30;;;12.60;1.00;;;;;;5062580;28;21107;-76
2022/04/27 03:12:36;;;;;;;13.03;8.27;;;12.50;1.00;;;;;;5061211;28;20811;-76
2022/04/27 03:15:05;;;;;;;13.03;8.20;;;12.60;1.00;;;;;;5062719;28;20476;-76
2022/04/27 03:17:33;;;;;;;11.07;8.03;;;12.60;1.00;;;;;;5060586;28;20980;-77
2022/04/27 03:20:04;;;;;;;10.90;7.10;;;12.60;1.00;;;;;;5063997;28;20558;-77
2022/04/27 03:22:32;;;;;;;10.17;6.60;;;12.60;99.90;;;;;;5061029;28;20473;-77
2022/04/27 03:25:00;;;;;;;11.97;8.40;;;12.60;1.00;;;;;;5061613;28;20504;-77
2022/04/27 03:27:28;;;;;;;12.57;8.90;;;12.60;1.00;;;;;;5059835;28;20466;-76
2022/04/27 03:29:56;;;;;;;7.57;6.60;;;12.50;1.00;;;;;;5062854;28;20847;-77
2022/04/27 03:32:24;;;;;;;8.90;7.13;;;12.50;1.00;;;;;;5059937;28;20945;-76
2022/04/27 03:34:52;;;;;;;10.87;6.87;;;12.60;1.00;;;;;;5058507;28;20475;-76
2022/04/27 03:37:22;;;;;;;10.17;6.50;;;12.60;99.90;;;;;;5059935;28;20967;-76
2022/04/27 03:39:50;;;;;;;9.00;6.77;;;12.60;99.90;;;;;;5060204;28;20574;-75
2022/04/27 03:42:18;;;;;;;9.43;7.33;;;12.60;1.00;;;;;;5061312;28;20516;-75
2022/04/27 03:44:46;;;;;;;10.00;6.10;;;12.60;1.00;;;;;;5054266;28;20455;-76
2022/04/27 03:47:14;;;;;;;11.30;7.00;;;12.60;99.90;;;;;;5060767;28;20450;-76
2022/04/27 03:49:43;;;;;;;9.20;7.37;;;12.60;99.90;;;;;;5061338;28;20474;-75
2022/04/27 03:52:11;;;;;;;8.77;6.63;;;12.60;99.90;;;;;;5058260;28;20442;-77
2022/04/27 03:54:40;;;;;;;12.10;6.87;;;12.50;1.00;;;;;;5059531;28;21117;-75
2022/04/27 03:57:09;;;;;;;9.47;7.30;;;12.50;1.00;;;;;;5057237;28;20473;-76
2022/04/27 03:59:37;;;;;;;7.20;6.23;;;12.50;1.00;;;;;;5059671;28;20483;-75
2022/04/27 04:02:06;;;;;;;7.60;5.77;;;12.50;1.00;;;;;;5058646;28;20461;-76
2022/04/27 04:04:35;;;;;;;9.60;7.50;;;12.40;1.00;;;;;;5060540;28;20571;-76
2022/04/27 04:07:04;;;;;;;9.67;7.40;;;12.40;1.00;;;;;;5060922;28;20496;-76
2022/04/27 04:09:32;;;;;;;9.03;6.07;;;12.40;1.00;;;;;;5059466;28;20480;-76
2022/04/27 04:12:02;;;;;;;10.00;6.53;;;12.50;1.00;;;;;;5060582;28;20475;-76
2022/04/27 04:14:30;;;;;;;11.00;7.23;;;12.60;1.00;;;;;;5059542;28;20458;-75
2022/04/27 04:16:59;;;;;;;11.63;6.83;;;12.40;1.00;;;;;;5057154;28;20454;-76
2022/04/27 04:19:28;;;;;;;11.73;7.00;;;12.50;1.00;;;;;;5056148;28;20506;-77
2022/04/27 04:21:56;;;;;;;12.47;7.70;;;12.40;1.00;;;;;;5052423;28;20825;-75
2022/04/27 04:24:24;;;;;;;10.10;6.70;;;12.40;1.00;;;;;;5057366;28;20456;-76
2022/04/27 04:29:43;;;;;;;9.07;6.10;;;12.50;1.00;;;;;;5061925;28;20459;-76
2022/04/27 04:32:11;;;;;;;7.73;6.30;;;12.50;1.00;;;;;;5060379;28;21741;-78
2022/04/27 04:34:39;;;;;;;10.00;6.93;;;12.50;1.00;;;;;;5059038;28;20530;-76
2022/04/27 04:37:08;;;;;;;11.30;7.17;;;12.50;1.00;;;;;;5064105;28;20496;-76
2022/04/27 04:39:36;;;;;;;8.10;6.30;;;12.50;1.00;;;;;;5062920;28;20561;-71
2022/04/27 04:42:07;;;;;;;10.43;6.57;;;12.50;1.00;;;;;;5064275;28;20450;-71
2022/04/27 04:44:35;;;;;;;11.87;8.20;;;12.30;1.00;;;;;;5059381;28;20539;-76
2022/04/27 04:47:06;;;;;;;11.73;6.83;;;12.10;1.00;;;;;;5059415;28;20454;-77
2022/04/27 04:49:34;;;;;;;9.57;7.80;;;12.20;1.00;;;;;;5062383;28;20472;-76
2022/04/27 04:52:03;;;;;;;9.30;6.20;;;12.30;1.00;;;;;;5060804;28;20454;-76
2022/04/27 04:54:31;;;;;;;10.40;7.10;;;12.40;1.00;;;;;;5061364;28;20531;-76
2022/04/27 04:57:00;;;;;;;9.27;6.40;;;12.50;1.00;;;;;;5058207;28;20442;-76
2022/04/27 04:59:28;;;;;;;12.85;9.48;;;12.50;1.00;;;;;;5055350;28;20471;-76
2022/04/27 05:01:56;;;;;;;10.90;8.07;;;12.50;1.00;;;;;;5066264;28;20203;-77
2022/04/27 05:04:26;;;;;;;13.17;9.10;;;12.60;1.00;;;;;;5070463;28;20446;-76
2022/04/27 05:06:54;;;;;;;11.00;8.30;;;12.60;1.00;;;;;;5076602;28;20442;-76
2022/04/27 05:09:22;;;;;;;9.97;7.23;;;12.60;1.00;;;;;;5066682;28;20484;-76
2022/04/27 05:11:51;;;;;;;10.13;6.80;;;12.50;1.00;;;;;;5066232;28;20483;-75
2022/04/27 05:14:19;;;;;;;8.93;6.40;;;12.50;1.00;;;;;;5066327;28;20554;-75
2022/04/27 05:16:47;;;;;;;15.50;8.33;;;12.50;1.00;;;;;;5059430;28;20454;-75
2022/04/27 05:19:15;;;;;;;10.37;7.83;;;12.50;1.00;;;;;;5065425;28;20583;-76
2022/04/27 05:21:45;;;;;;;9.40;7.30;;;12.40;1.00;;;;;;5063375;28;20484;-77
2022/04/27 05:24:13;;;;;;;12.70;7.60;;;12.60;1.00;;;;;;5062725;28;20972;-77
2022/04/27 05:26:41;;;;;;;11.33;7.73;;;12.90;1.00;;;;;;5063813;28;20472;-77
2022/04/27 05:31:55;;;;;;;11.83;8.13;;;12.60;1.00;;;;;;5061930;28;20534;-75
2022/04/27 05:34:24;;;;;;;12.30;7.40;;;12.60;1.00;;;;;;5060798;28;20461;-75
2022/04/27 05:36:53;;;;;;;9.73;6.80;;;12.60;1.00;;;;;;5055520;28;20442;-76
2022/04/27 05:39:22;;;;;;;11.33;6.90;;;12.60;1.00;;;;;;5057353;28;20491;-76
2022/04/27 05:41:51;;;;;;;7.17;6.13;;;12.60;1.00;;;;;;5063712;28;20464;-75
2022/04/27 05:44:19;;;;;;;9.00;6.07;;;12.60;1.00;;;;;;5056567;28;20462;-74
2022/04/27 05:46:47;;;;;;;8.40;6.20;;;12.60;1.00;;;;;;5060128;28;20490;-75
2022/04/27 05:49:15;;;;;;;10.47;7.63;;;12.60;1.00;;;;;;5056466;28;20475;-76
2022/04/27 05:51:44;;;;;;;11.23;7.33;;;12.70;1.00;;;;;;5060578;28;21000;-75
2022/04/27 05:54:14;;;;;;;10.37;7.40;;;12.70;1.00;;;;;;5057277;28;20449;-75
2022/04/27 05:56:43;;;;;;;10.60;7.23;;;12.60;1.00;;;;;;5058660;28;20599;-75
2022/04/27 05:59:12;;;;;;;11.80;7.10;;;12.60;1.00;;;;;;5060193;28;20464;-75
2022/04/27 06:01:40;;;;;;;10.17;6.60;;;12.70;1.00;;;;;;5067091;28;20455;-76
2022/04/27 06:04:08;;;;;;;11.27;6.90;;;12.70;1.00;;;;;;5062921;28;21031;-76
2022/04/27 06:06:37;;;;;;;9.77;6.83;;;12.70;1.00;;;;;;5058604;28;20463;-75
2022/04/27 06:09:05;;;;;;;9.70;6.70;;;12.70;1.00;;;;;;5058684;28;20483;-74
2022/04/27 06:11:35;;;;;;;9.90;6.60;;;12.70;1.00;;;;;;5060064;28;21299;-75
2022/04/27 06:14:03;;;;;;;11.53;6.90;;;12.70;1.00;;;;;;5059777;28;20462;-75
2022/04/27 06:16:33;;;;;;;9.57;7.03;;;12.70;1.00;;;;;;5058140;28;20451;-75
2022/04/27 06:19:01;;;;;;;8.87;6.63;;;12.70;1.00;;;;;;5060609;28;20481;-76
2022/04/27 06:21:31;;;;;;;10.00;6.20;;;12.70;1.00;;;;;;5059771;28;20474;-75
2022/04/27 06:24:00;;;;;;;10.40;6.33;;;12.80;1.00;;;;;;5061803;28;20462;-76
2022/04/27 06:26:33;;;;;;;9.30;6.47;;;12.70;1.00;;;;;;5052434;28;151091;-76
2022/04/27 06:29:02;;;;;;;12.80;7.37;;;12.80;1.00;;;;;;5062604;28;20483;-77
2022/04/27 06:31:31;;;;;;;10.37;6.50;;;12.80;1.00;;;;;;5062746;28;20443;-76
2022/04/27 06:33:59;;;;;;;8.30;6.07;;;12.80;1.00;;;;;;5061933;28;20565;-75
2022/04/27 06:36:27;;;;;;;11.53;7.47;;;12.80;1.00;;;;;;5066090;28;20658;-75
2022/04/27 06:38:55;;;;;;;9.40;7.20;;;12.90;1.00;;;;;;5058192;28;20476;-76
2022/04/27 06:41:24;;;;;;;9.10;6.73;;;12.80;1.00;;;;;;5057886;28;20910;-76
2022/04/27 06:43:52;;;;;;;10.33;6.30;;;12.90;1.00;;;;;;5061406;28;20520;-76
2022/04/27 06:46:21;;;;;;;10.00;6.30;;;13.00;1.00;;;;;;5059642;28;20470;-76
2022/04/27 06:48:49;;;;;;;8.60;6.23;;;13.00;1.00;;;;;;5061213;28;20459;-77
2022/04/27 06:51:18;;;;;;;9.70;7.07;;;12.90;1.00;;;;;;5057750;28;20481;-76
2022/04/27 06:53:47;;;;;;;9.90;7.17;;;12.90;1.00;;;;;;5060762;28;20453;-76
2022/04/27 06:56:16;;;;;;;8.20;4.97;;;12.80;1.00;;;;;;5059980;28;20446;-76
2022/04/27 06:58:45;;;;;;;12.60;7.80;;;12.90;1.00;;;;;;5061234;28;21120;-76
2022/04/27 07:01:14;;;;;;;9.03;7.40;;;12.90;1.00;;;;;;5057779;28;20579;-76
2022/04/27 07:03:44;;;;;;;10.77;7.83;;;12.90;1.00;;;;;;5058480;28;20464;-76
2022/04/27 07:06:13;;;;;;;11.10;7.10;;;12.90;1.00;;;;;;5060985;28;20542;-76
2022/04/27 07:08:43;;;;;;;8.43;6.50;;;12.80;1.00;;;;;;5061549;28;20820;-76
2022/04/27 07:11:11;;;;;;;8.77;6.27;;;12.80;1.00;;;;;;5063325;28;20444;-76
2022/04/27 07:13:39;;;;;;;11.43;7.07;;;12.80;1.00;;;;;;5058976;28;20461;-75
2022/04/27 07:16:07;;;;;;;8.43;6.23;;;12.90;1.00;;;;;;5059393;28;20456;-75
2022/04/27 07:18:35;;;;;;;10.57;8.03;;;12.90;1.00;;;;;;5059010;28;21018;-76
2022/04/27 07:21:08;;;;;;;7.30;5.40;;;12.80;1.00;;;;;;5062242;28;21082;-75
2022/04/27 07:23:38;;;;;;;10.53;6.80;;;12.80;1.00;;;;;;5060416;28;21218;-77
2022/04/27 07:26:07;;;;;;;9.20;5.97;;;12.80;1.00;;;;;;5063294;28;20472;-76
2022/04/27 07:28:36;;;;;;;9.70;7.23;;;12.80;56.00;;;;;;5058455;28;20479;-75
2022/04/27 07:31:04;;;;;;;8.40;6.27;;;12.90;14.20;;;;;;5092109;28;20448;-75
2022/04/27 07:33:34;;;;;;;9.13;7.63;;;12.90;90.60;;;;;;5056449;28;20480;-75
2022/04/27 07:36:02;;;;;;;10.90;6.17;;;13.00;91.60;;;;;;5062871;28;20458;-75
2022/04/27 07:38:31;;;;;;;10.10;6.97;;;13.20;99.90;;;;;;5061968;28;20471;-76
2022/04/27 07:40:59;;;;;;;12.47;7.23;;;13.20;1.00;;;;;;5061151;28;20475;-76
2022/04/27 07:43:28;;;;;;;7.80;6.00;;;13.20;1.00;;;;;;5061217;28;20956;-76
2022/04/27 07:45:56;;;;;;;11.57;6.73;;;13.20;1.00;;;;;;5057285;28;21136;-74
2022/04/27 07:48:24;;;;;;;9.17;6.50;;;13.20;1.00;;;;;;5061500;28;20464;-76
2022/04/27 07:50:52;;;;;;;9.47;6.07;;;13.20;1.00;;;;;;5058690;28;20461;-75
2022/04/27 07:53:20;;;;;;;8.97;6.30;;;13.20;1.00;;;;;;5064102;28;21237;-76
2022/04/27 07:55:50;;;;;;;10.73;7.40;;;13.20;1.00;;;;;;5057829;28;20472;-75
2022/04/27 07:58:18;;;;;;;9.50;6.63;;;13.20;1.00;;;;;;5056366;28;20437;-75
2022/04/27 08:00:46;;;;;;;9.97;6.67;;;13.20;1.00;;;;;;5059646;28;20479;-75
2022/04/27 08:03:14;;;;;;;10.60;5.83;;;13.20;1.00;;;;;;5059424;28;20849;-75
2022/04/27 08:05:43;;;;;;;7.77;6.27;;;13.20;1.00;;;;;;5061773;28;20467;-74
2022/04/27 08:08:11;;;;;;;9.60;6.20;;;13.20;1.00;;;;;;5057229;28;20452;-74
2022/04/27 08:10:45;;;;;;;8.57;5.97;;;13.20;1.00;;;;;;5059761;28;20452;-75
2022/04/27 08:13:16;;;;;;;10.30;6.50;;;13.20;1.00;;;;;;5066640;28;21010;-76
2022/04/27 08:15:44;;;;;;;8.70;6.47;;;13.20;1.00;;;;;;5059329;28;20463;-75
2022/04/27 08:18:12;;;;;;;7.53;5.97;;;13.20;1.00;;;;;;5058858;28;20451;-74
2022/04/27 08:23:29;;;;;;;10.30;6.70;;;13.30;1.00;;;;;;5070341;28;20461;-75
2022/04/27 08:25:59;;;;;;;8.23;6.43;;;13.40;1.00;;;;;;5061486;28;20457;-76
2022/04/27 08:28:29;;;;;;;10.03;7.77;;;13.40;1.00;;;;;;5058137;28;20476;-75
2022/04/27 08:30:58;;;;;;;8.33;6.13;;;13.30;1.00;;;;;;5059731;28;20463;-74
2022/04/27 08:33:27;;;;;;;7.93;5.40;;;13.40;1.00;;;;;;5056647;28;20483;-76
2022/04/27 08:35:57;;;;;;;7.70;5.40;;;13.50;1.00;;;;;;5051656;28;20809;-77
2022/04/27 08:38:45;;;;;;;7.50;5.30;;;13.50;99.90;;;;;;5064210;28;20500;-76
2022/04/27 08:41:14;;;;;;;5.93;4.53;;;13.60;1.00;;;;;;5058478;28;20471;-76
2022/04/27 08:43:44;;;;;;;7.23;5.10;;;13.60;1.00;;;;;;5062895;28;20545;-76
2022/04/27 08:46:14;;;;;;;6.20;5.40;;;13.60;1.00;;;;;;5061412;28;20457;-76
2022/04/27 08:48:47;;;;;;;5.90;5.23;;;13.70;1.00;;;;;;5066280;28;20504;-76
2022/04/27 08:51:15;;;;;;;6.87;6.17;;;13.70;1.00;;;;;;5066671;28;20454;-76
2022/04/27 08:53:44;;;;;;;8.53;5.77;;;13.70;1.00;;;;;;5066180;28;20476;-76
2022/04/27 08:56:13;;;;;;;7.63;5.13;;;13.70;1.00;;;;;;5062119;28;20541;-76
2022/04/27 08:58:42;;;;;;;5.60;4.97;;;13.70;1.00;;;;;;5060949;28;20860;-76
2022/04/27 09:01:13;;;;;;;7.13;4.63;;;13.70;1.00;;;;;;5057030;28;20849;-75
2022/04/27 09:03:42;;;;;;;5.10;4.23;;;13.70;99.90;;;;;;5053592;28;20548;-75
2022/04/27 09:06:12;;;;;;;6.60;5.10;;;13.70;99.90;;;;;;5056442;28;20913;-75
2022/04/27 09:08:43;;;;;;;5.60;4.20;;;13.60;99.90;;;;;;5061531;28;20505;-76
2022/04/27 09:11:18;;;;;;;5.23;4.50;;;13.70;99.90;;;;;;5061212;28;21017;-76
2022/04/27 09:13:49;;;;;;;6.90;4.53;;;13.70;99.90;;;;;;5059759;28;20534;-76
2022/04/27 09:16:21;;;;;;;5.80;4.13;;;13.70;99.90;;;;;;5055727;28;20459;-76
2022/04/27 09:22:02;;;;;;;7.70;5.00;;;13.70;99.90;;;;;;5062872;28;21006;-75
2022/04/27 09:24:47;;;;;;;6.27;4.90;;;13.70;99.90;;;;;;5063011;28;20448;-75
2022/04/27 09:27:18;;;;;;;7.43;4.80;;;13.60;99.90;;;;;;5063107;28;20467;-74
2022/04/27 09:29:57;;;;;;;7.50;4.87;;;13.70;99.90;;;;;;5058750;28;20474;-75
2022/04/27 09:32:27;;;;;;;5.97;5.13;;;13.70;99.90;;;;;;5060557;28;20462;-75
2022/04/27 09:34:57;;;;;;;6.73;5.43;;;13.60;99.90;;;;;;5059125;28;20468;-75
2022/04/27 09:37:27;;;;;;;6.87;4.57;;;13.70;99.90;;;;;;5060581;28;20454;-75
2022/04/27 09:40:04;;;;;;;5.90;4.67;;;13.90;99.90;;;;;;5061737;28;20476;-77
2022/04/27 09:42:34;;;;;;;7.50;5.00;;;14.00;99.90;;;;;;5064715;28;20481;-75
2022/04/27 09:45:16;;;;;;;4.30;3.90;;;14.10;99.90;;;;;;5062325;28;20446;-74
2022/04/27 09:47:53;;;;;;;8.30;4.27;;;14.20;99.90;;;;;;5064357;28;20454;-75
2022/04/27 09:50:21;;;;;;;7.17;4.13;;;14.30;99.90;;;;;;5061061;28;20497;-75
2022/04/27 09:52:49;;;;;;;3.73;3.00;;;14.30;99.90;;;;;;5065523;28;20480;-75
2022/04/27 09:55:18;;;;;;;5.60;3.57;;;14.50;99.90;;;;;;5056179;28;20450;-75
2022/04/27 09:57:55;;;;;;;4.47;4.03;;;14.70;99.90;;;;;;5064101;28;20471;-76
2022/04/27 10:00:24;;;;;;;5.60;3.07;;;14.60;99.90;;;;;;5061396;28;20476;-76
2022/04/27 10:02:57;;;;;;;3.50;3.03;;;14.70;99.90;;;;;;5058427;28;20497;-75
2022/04/27 10:05:27;;;;;;;4.77;3.50;;;14.80;99.90;;;;;;5055162;28;20458;-76
2022/04/27 10:07:56;;;;;;;5.13;3.20;;;14.90;99.90;;;;;;5066899;28;20456;-75
2022/04/27 10:10:25;;;;;;;5.23;3.67;;;14.90;99.90;;;;;;5068305;28;20477;-76
2022/04/27 10:12:55;;;;;;;5.13;4.07;;;15.00;99.90;;;;;;5063503;28;20491;-76
2022/04/27 10:15:23;;;;;;;5.40;3.80;;;14.80;99.90;;;;;;5069538;28;20450;-76
2022/04/27 10:17:51;;;;;;;5.10;3.83;;;14.70;99.90;;;;;;5068610;28;20454;-76
2022/04/27 10:20:32;;;;;;;4.13;2.77;;;14.50;99.90;;;;;;5067653;28;20478;-75
2022/04/27 10:23:31;;;;;;;6.23;3.33;;;14.60;99.90;;;;;;5062747;28;20489;-75
2022/04/27 10:26:11;;;;;;;5.07;2.90;;;14.70;99.90;;;;;;5045822;28;20468;-79
2022/04/27 10:28:42;;;;;;;3.57;3.27;;;14.80;99.90;;;;;;5067935;28;20481;-76
2022/04/27 10:31:10;;;;;;;4.83;3.57;;;14.70;99.90;;;;;;5067576;28;20461;-77
2022/04/27 10:33:43;;;;;;;3.93;3.20;;;14.60;99.90;;;;;;5067257;28;20490;-76
2022/04/27 10:36:38;;;;;;;4.43;3.07;;;14.70;99.90;;;;;;5060783;28;20446;-75
2022/04/27 10:39:24;;;;;;;4.77;3.10;;;14.80;99.90;;;;;;5064708;28;20469;-75
2022/04/27 10:42:34;;;;;;;3.87;3.33;;;14.70;99.90;;;;;;5059502;28;20512;-75
2022/04/27 10:45:13;;;;;;;4.20;3.10;;;14.80;99.90;;;;;;5065824;28;20459;-76
2022/04/27 10:47:44;;;;;;;4.40;2.77;;;14.90;99.90;;;;;;5063897;28;20455;-75
2022/04/27 10:50:33;;;;;;;4.00;3.10;;;14.90;99.90;;;;;;5069119;28;21099;-75
2022/04/27 10:53:21;;;;;;;3.67;3.37;;;14.80;99.90;;;;;;5056492;28;20482;-76
2022/04/27 10:55:58;;;;;;;4.20;3.00;;;14.80;99.90;;;;;;5062553;28;20458;-76
2022/04/27 10:58:30;;;;;;;2.73;2.50;;;14.80;99.90;;;;;;5059974;28;20458;-76
2022/04/27 11:01:27;;;;;;;2.80;2.47;;;14.80;99.90;;;;;;5060672;28;20524;-78
2022/04/27 11:04:04;;;;;;;2.50;2.23;;;14.80;99.90;;;;;;5059727;28;20588;-78
2022/04/27 11:07:21;;;;;;;3.23;2.93;;;14.80;99.90;;;;;;5051897;28;20545;-77
2022/04/27 11:10:10;;;;;;;2.80;2.50;;;14.90;99.90;;;;;;5038005;28;21038;-78
2022/04/27 11:12:40;;;;;;;3.80;2.47;;;15.00;99.90;;;;;;5057176;28;20447;-79
2022/04/27 11:15:10;;;;;;;3.10;2.63;;;15.10;99.90;;;;;;5051901;28;20451;-78
2022/04/27 11:17:40;;;;;;;2.37;1.93;;;15.10;99.90;;;;;;5063892;28;20486;-78
2022/04/27 11:20:25;;;;;;;2.30;1.90;;;15.10;99.90;;;;;;5061029;28;21147;-78
2022/04/27 11:22:53;;;;;;;3.73;2.40;;;15.00;99.90;;;;;;5060297;28;20473;-78
2022/04/27 11:25:28;;;;;;;2.00;1.57;;;15.00;99.90;;;;;;5064004;28;20446;-78
2022/04/27 11:27:56;;;;;;;3.30;2.27;;;15.00;99.90;;;;;;5059786;28;21041;-78
2022/04/27 11:30:26;;;;;;;4.50;2.53;;;15.00;99.90;;;;;;5054336;28;20485;-78
2022/04/27 11:32:54;;;;;;;2.40;2.20;;;15.00;99.90;;;;;;5058486;28;20508;-77
2022/04/27 11:35:24;;;;;;;2.97;2.10;;;15.00;99.90;;;;;;5060260;28;20748;-78
2022/04/27 11:37:53;;;;;;;3.10;2.40;;;15.00;99.90;;;;;;5057133;28;20970;-79
2022/04/27 11:40:27;;;;;;;2.40;2.20;;;15.00;99.90;;;;;;5060084;28;20997;-78
2022/04/27 11:43:00;;;;;;;3.97;2.20;;;15.00;99.90;;;;;;5061153;28;20839;-78
2022/04/27 11:45:29;;;;;;;2.53;2.20;;;15.00;99.90;;;;;;5059490;28;20999;-78
2022/04/27 11:47:59;;;;;;;4.10;2.43;;;15.00;99.90;;;;;;5054768;28;20842;-79
2022/04/27 11:50:28;;;;;;;3.20;2.20;;;15.00;99.90;;;;;;5059106;28;20611;-76
2022/04/27 11:52:58;;;;;;;2.97;2.20;;;15.00;99.90;;;;;;5060969;28;20458;-76
2022/04/27 11:55:27;;;;;;;3.27;2.23;;;14.90;99.90;;;;;;5061627;28;20449;-76
2022/04/27 11:57:57;;;;;;;3.40;3.10;;;14.90;99.90;;;;;;5056720;28;20458;-75
2022/04/27 12:00:27;;;;;;;3.53;2.67;;;14.90;99.90;;;;;;5072891;28;23092;-76
2022/04/27 12:03:03;;;;;;;2.30;2.03;;;14.90;99.90;;;;;;5060593;28;21031;-78
2022/04/27 12:05:33;;;;;;;2.40;2.20;;;14.80;99.90;;;;;;5086421;28;20469;-76
2022/04/27 12:08:03;;;;;;;2.67;2.47;;;14.80;99.90;;;;;;5057847;28;20462;-76
2022/04/27 12:10:39;;;;;;;2.33;2.13;;;14.90;99.90;;;;;;5059996;28;21281;-75
2022/04/27 12:13:09;;;;;;;3.27;2.97;;;15.00;99.90;;;;;;5058812;28;20454;-75
2022/04/27 12:15:39;;;;;;;4.70;2.40;;;15.00;99.90;;;;;;5059244;28;20458;-76
2022/04/27 12:18:08;;;;;;;2.97;2.73;;;14.60;99.90;;;;;;5056699;28;21032;-76
2022/04/27 12:20:39;;;;;;;2.30;2.10;;;14.60;99.90;;;;;;5057925;28;20572;-76
2022/04/27 12:23:09;;;;;;;2.43;2.23;;;14.80;99.90;;;;;;5054624;28;21009;-76
2022/04/27 12:25:40;;;;;;;2.20;2.00;;;14.70;99.90;;;;;;5059767;28;20543;-76
2022/04/27 12:28:13;;;;;;;2.40;2.13;;;14.70;99.90;;;;;;5054754;28;20540;-76
2022/04/27 12:30:42;;;;;;;2.30;2.10;;;14.90;99.90;;;;;;5060748;28;20525;-76
2022/04/27 12:33:12;;;;;;;1.70;1.60;;;15.10;99.90;;;;;;5058403;28;21042;-76
2022/04/27 12:38:29;;;;;;;3.10;2.13;;;15.20;99.90;;;;;;5063632;28;20527;-76
2022/04/27 12:40:59;;;;;;;2.47;2.20;;;15.20;99.90;;;;;;5062831;28;20470;-76
2022/04/27 12:43:29;;;;;;;2.03;1.90;;;15.30;99.90;;;;;;5066430;28;20520;-76
2022/04/27 12:46:08;;;;;;;1.53;1.43;;;15.10;99.90;;;;;;5064956;28;20527;-77
2022/04/27 12:48:38;;;;;;;2.20;2.10;;;15.20;99.90;;;;;;5064389;28;20479;-76
2022/04/27 12:51:08;;;;;;;1.60;1.33;;;15.30;99.90;;;;;;5065272;28;20821;-76
2022/04/27 12:53:37;;;;;;;2.17;1.80;;;15.40;99.90;;;;;;5058512;28;20456;-78
2022/04/27 12:56:15;;;;;;;1.83;1.40;;;15.50;99.90;;;;;;5062981;28;20455;-76
2022/04/27 12:59:03;;;;;;;1.47;1.30;;;15.60;99.90;;;;;;5058854;28;20501;-78
2022/04/27 13:01:31;;;;;;;1.73;1.40;;;15.30;99.90;;;;;;5061573;28;20455;-77
2022/04/27 13:04:00;;;;;;;1.73;1.50;;;15.70;99.90;;;;;;5055798;28;20500;-76
2022/04/27 13:06:30;;;;;;;2.70;2.00;;;15.50;99.90;;;;;;5061591;28;21413;-76
2022/04/27 13:11:55;;;;;;;1.87;1.77;;;15.50;99.90;;;;;;5065490;28;20482;-75
2022/04/27 13:11:57;;;;;;;3.57;1.30;;;15.60;99.90;;;;;;5060155;28;21060;-77
2022/04/27 13:14:28;;;;;;;2.13;1.70;;;15.80;99.90;;;;;;5063257;28;20459;-76
2022/04/27 13:16:57;;;;;;;2.20;2.00;;;15.90;99.90;;;;;;5064505;28;20463;-77
2022/04/27 13:19:26;;;;;;;1.70;1.57;;;16.00;99.90;;;;;;5060920;28;20996;-76
2022/04/27 13:21:54;;;;;;;2.23;2.03;;;16.00;99.90;;;;;;5062158;28;20464;-76
2022/04/27 13:24:22;;;;;;;1.70;1.50;;;15.90;99.90;;;;;;5061820;28;20490;-77
2022/04/27 13:27:10;;;;;;;1.60;1.50;;;15.90;99.90;;;;;;5064071;28;20474;-77